Terminal Aerodrome Forecast
Issued by NWS

Home | Current Version | Previous Version | Text Only | Print | Product List | Glossary On
Versions: 1 2 3 4 5 6 7 8 9 10 11 12 13 14 15
416
FTUS46 KMTR 100534
TAFSNS
TAF
KSNS 100534Z 1006/1106 VRB03KT P6SM OVC008
      TEMPO 1006/1009 1SM BR OVC002
     FM100900 14008KT P6SM -SHRA OVC008
     FM101300 14010KT P6SM OVC015
     FM101800 14010KT P6SM BKN025
     FM102000 15010KT P6SM -RA SCT005 BKN025
     FM102200 16008KT 5SM -RA BKN005 OVC020
     FM110400 13005KT P6SM OVC005=

USA.gov is the U.S. government's official web portal to all federal, state and local government web resources and services.